Darbhanga Airport

Jump to: basic info | weather | runways | comments

Related pages: nearby airports | nearby navaids | notams | map

Basic information (top)

Codes: VE89
Location: lon 26.192801, lat 85.916901, elev 156 ft / 48 m msl
Status: small_airport

Weather (top)

Current conditions for Lok Nayak Jayaprakash Airport 58nm (107km) SW (rec'd 2014/09/21 14:50Z):

VEPT 211450Z 07003KT 3500 HZ SCT018 BKN100 28/26 Q1003 NOSIG

Airport forecast for Lok Nayak Jayaprakash Airport 58nm (107km) SW (rec'd 2014/09/16 18:00Z):

TAF VEPT 161500Z 1618/1724 28004KT 3000 HZ/-RA SCT015 FEW030CB BKN100 
      BECMG 1622/1624 2000 HZ/-RA 
      BECMG 1705/1707 30005KT 3000 HZ/-RA 
      BECMG 1710/1712 2500 HZ/-RA SCT018 FEW030CB BKN100 
      BECMG 1722/1724 2000 HZ/-RA

Runways (top)

10/28: 9,000 x 150 ft (2,743 x 46 m) — paved — not lighted

Latest comments (top)

Requested all the concern person to start Darbhanga Airport: Dear Sir, as you know most of the ... [read]

Darbhanga Airport: Dear Sir, Kindly requested to Please, ... [read]

START DARBHANGA AIR PORT: I REQUESTE TO CENTRAL AND BIHAR ... [read]

Please apeel to start the airport: Dear Kindly Request PM TO Start The ... [read]

airline service: Please please start airline services ... [read]

See all 23 comments for Darbhanga Airport

More... (top)

See also NOTAMs and nearby airports and navaids, or visit the Darbhanga Airport page at the main OurAirports website..